Time;durP1;ratioP1;P1;durP2;ratioP2;P2;SDS_P1;SDS_P2;PMS_P1;PMS_P2;Temp;Humidity;BMP_temperature;BMP_pressure;BME280_temperature;BME280_humidity;BME280_pressure;Samples;Min_cycle;Max_cycle;Signal;HPM_P1;HPM_P2
2021/11/21 00:01:26;;;;;;;22.22;14.43;;;;;;;8.42;81.11;99886.66;1772072;79;21429;-85
2021/11/21 00:03:53;;;;;;;23.50;14.80;;;;;;;8.42;81.14;99883.58;1769977;79;21477;-85
2021/11/21 00:06:20;;;;;;;20.88;13.58;;;;;;;8.44;81.16;99872.95;1768196;79;20979;-85
2021/11/21 00:08:47;;;;;;;19.67;13.68;;;;;;;8.45;81.19;99875.93;1776583;79;21010;-85
2021/11/21 00:11:14;;;;;;;18.00;12.40;;;;;;;8.44;81.21;99875.09;1770591;79;21030;-85
2021/11/21 00:13:40;;;;;;;18.10;13.25;;;;;;;8.43;81.27;99866.84;1770537;79;21021;-85
2021/11/21 00:16:06;;;;;;;14.87;10.90;;;;;;;8.44;81.22;99864.58;1771722;79;20941;-85
2021/11/21 00:18:34;;;;;;;16.77;11.05;;;;;;;8.44;81.23;99859.31;1771078;79;21519;-85
2021/11/21 00:21:00;;;;;;;20.17;11.20;;;;;;;8.42;81.34;99861.69;1773495;79;21049;-85
2021/11/21 00:23:27;;;;;;;17.02;11.20;;;;;;;8.42;81.24;99852.03;1778275;79;20933;-85
2021/11/21 00:25:53;;;;;;;19.77;11.73;;;;;;;8.41;81.35;99854.27;1768902;79;20993;-85
2021/11/21 00:28:19;;;;;;;18.92;12.58;;;;;;;8.42;81.36;99848.09;1785857;79;21017;-85
2021/11/21 00:30:46;;;;;;;19.60;11.55;;;;;;;8.42;81.39;99848.54;1774241;79;20965;-85
2021/11/21 00:33:12;;;;;;;17.95;12.63;;;;;;;8.41;81.39;99842.45;1747559;79;21023;-85
2021/11/21 00:35:38;;;;;;;19.20;12.50;;;;;;;8.41;81.41;99837.19;1782899;79;20972;-85
2021/11/21 00:38:04;;;;;;;23.40;14.80;;;;;;;8.43;81.46;99835.78;1800764;79;21017;-85
2021/11/21 00:40:32;;;;;;;19.10;13.10;;;;;;;8.41;81.40;99831.09;1773716;81;20981;-85
2021/11/21 00:42:58;;;;;;;18.80;13.70;;;;;;;8.40;81.47;99828.95;1770600;79;21462;-85
2021/11/21 00:45:26;;;;;;;21.42;14.55;;;;;;;8.40;81.54;99827.63;1766773;79;21522;-85
2021/11/21 00:47:52;;;;;;;21.30;13.62;;;;;;;8.40;81.50;99821.05;1751940;79;21307;-85
2021/11/21 00:50:25;;;;;;;19.10;13.32;;;;;;;8.39;81.53;99813.27;1758877;79;21295;-85
2021/11/21 00:52:47;;;;;;;24.07;13.93;;;;;;;8.37;81.55;99810.73;1771369;79;21060;-85
2021/11/21 00:55:16;;;;;;;22.73;14.15;;;;;;;8.36;81.64;99814.31;1772451;79;21314;-85
2021/11/21 00:57:44;;;;;;;18.87;13.70;;;;;;;8.36;81.61;99810.37;1768897;79;20985;-85
2021/11/21 01:00:14;;;;;;;20.00;12.70;;;;;;;8.37;81.64;99803.31;1778806;79;20969;-85
2021/11/21 01:02:42;;;;;;;19.27;11.93;;;;;;;8.36;81.67;99803.80;1786670;79;20974;-85
2021/11/21 01:05:11;;;;;;;18.57;11.55;;;;;;;8.35;81.64;99792.89;1777861;79;20934;-85
2021/11/21 01:07:38;;;;;;;15.60;11.22;;;;;;;8.33;81.52;99795.30;1777770;79;20995;-85
2021/11/21 01:10:12;;;;;;;18.35;10.82;;;;;;;8.33;81.62;99796.13;1771764;80;21027;-85
2021/11/21 01:12:42;;;;;;;17.27;11.53;;;;;;;8.32;81.64;99794.42;1771300;79;21520;-85
2021/11/21 01:15:13;;;;;;;18.00;11.25;;;;;;;8.32;81.71;99792.28;1771150;79;21531;-85
2021/11/21 01:17:40;;;;;;;16.67;11.38;;;;;;;8.32;81.69;99785.23;1771902;79;20971;-85
2021/11/21 01:20:09;;;;;;;17.98;10.78;;;;;;;8.31;81.63;99791.44;1774906;79;21009;-85
2021/11/21 01:22:35;;;;;;;17.85;10.95;;;;;;;8.32;81.64;99789.65;1782049;79;20974;-85
2021/11/21 01:25:05;;;;;;;14.95;10.90;;;;;;;8.30;81.66;99784.52;1757191;79;20936;-85
2021/11/21 01:27:31;;;;;;;15.45;11.05;;;;;;;8.31;81.76;99782.24;1765746;79;20976;-85
2021/11/21 01:29:58;;;;;;;15.23;10.08;;;;;;;8.31;81.82;99783.56;1763733;79;20929;-84
2021/11/21 01:32:28;;;;;;;13.65;9.40;;;;;;;8.31;81.74;99776.98;1777402;79;21005;-85
2021/11/21 01:34:54;;;;;;;14.13;10.32;;;;;;;8.31;81.67;99775.67;1776883;79;21065;-85
2021/11/21 01:37:20;;;;;;;18.57;9.73;;;;;;;8.30;81.66;99770.06;1773887;79;20985;-85
2021/11/21 01:39:47;;;;;;;14.90;11.10;;;;;;;8.29;81.77;99761.81;1763903;79;20953;-85
2021/11/21 01:42:13;;;;;;;14.98;9.70;;;;;;;8.30;81.83;99754.28;1767504;79;20970;-85
2021/11/21 01:44:39;;;;;;;16.17;10.48;;;;;;;8.31;81.83;99752.02;1774959;79;20977;-85
2021/11/21 01:47:07;;;;;;;16.77;10.20;;;;;;;8.31;81.73;99748.55;1773763;79;20946;-85
2021/11/21 01:49:34;;;;;;;15.48;10.55;;;;;;;8.31;81.66;99746.75;1775226;79;21349;-85
2021/11/21 01:52:00;;;;;;;15.65;11.08;;;;;;;8.31;81.76;99742.81;1768313;79;21451;-85
2021/11/21 01:54:27;;;;;;;14.98;9.70;;;;;;;8.31;81.79;99741.50;1744629;80;21451;-85
2021/11/21 01:56:53;;;;;;;15.15;10.72;;;;;;;8.32;81.79;99739.22;1756020;79;20986;-85
2021/11/21 01:59:22;;;;;;;15.72;11.33;;;;;;;8.33;81.96;99733.03;1788502;79;21001;-85
2021/11/21 02:01:48;;;;;;;16.40;10.93;;;;;;;8.34;81.85;99733.39;1791896;79;20966;-85
2021/11/21 02:04:14;;;;;;;17.60;10.88;;;;;;;8.34;81.87;99728.13;1744884;80;21024;-85
2021/11/21 02:06:41;;;;;;;21.70;11.48;;;;;;;8.35;81.98;99729.80;1757382;79;20974;-85
2021/11/21 02:09:07;;;;;;;18.40;11.73;;;;;;;8.35;81.98;99729.80;1770752;79;20937;-85
2021/11/21 02:11:34;;;;;;;14.93;10.90;;;;;;;8.36;81.93;99726.72;1750736;80;21282;-85
2021/11/21 02:14:00;;;;;;;16.60;11.97;;;;;;;8.36;81.82;99730.19;1754633;79;20988;-85
2021/11/21 02:16:30;;;;;;;17.00;11.48;;;;;;;8.35;81.92;99729.80;1762430;79;21408;-84
2021/11/21 02:18:57;;;;;;;16.12;11.70;;;;;;;8.35;81.84;99729.80;1761401;79;20961;-85
2021/11/21 02:21:24;;;;;;;18.27;13.30;;;;;;;8.34;81.96;99726.81;1752112;79;21457;-85
2021/11/21 02:23:51;;;;;;;18.20;12.18;;;;;;;8.35;81.86;99721.91;1774684;81;21012;-85
2021/11/21 02:26:18;;;;;;;14.50;10.50;;;;;;;8.34;81.84;99726.81;1755560;79;20984;-85
2021/11/21 02:28:52;;;;;;;16.45;10.68;;;;;;;8.34;81.86;99723.36;1765759;81;20962;-85
2021/11/21 02:31:18;;;;;;;19.02;11.63;;;;;;;8.33;81.79;99723.00;1789632;79;20990;-86
2021/11/21 02:33:45;;;;;;;16.23;11.55;;;;;;;8.31;81.80;99717.84;1783914;79;20961;-84
2021/11/21 02:36:12;;;;;;;18.82;11.60;;;;;;;8.30;81.82;99714.86;1790017;79;21036;-84
2021/11/21 02:38:38;;;;;;;16.73;11.60;;;;;;;8.29;81.84;99712.32;1806065;79;20966;-84
2021/11/21 02:41:08;;;;;;;14.25;10.40;;;;;;;8.28;81.90;99706.71;1780528;79;21041;-84
2021/11/21 02:43:35;;;;;;;16.70;10.70;;;;;;;8.27;81.89;99691.42;1775068;81;20977;-84
2021/11/21 02:46:04;;;;;;;12.55;9.18;;;;;;;8.27;81.92;99688.80;1774584;80;21020;-84
2021/11/21 02:48:32;;;;;;;15.48;10.80;;;;;;;8.26;81.97;99684.49;1780381;79;21005;-84
2021/11/21 02:51:01;;;;;;;14.30;10.72;;;;;;;8.26;81.94;99673.98;1774869;79;20980;-84
2021/11/21 02:53:30;;;;;;;16.02;10.53;;;;;;;8.27;81.87;99678.28;1775517;80;20950;-85
2021/11/21 02:56:00;;;;;;;14.60;11.55;;;;;;;8.28;81.96;99677.31;1775220;81;21526;-84
2021/11/21 02:58:28;;;;;;;13.45;11.08;;;;;;;8.30;82.04;99674.59;1774334;81;22177;-84
2021/11/21 03:00:56;;;;;;;17.73;10.75;;;;;;;8.30;81.99;99671.97;1774437;79;21008;-85
2021/11/21 03:03:22;;;;;;;13.68;10.58;;;;;;;8.30;81.94;99674.11;1774691;80;21002;-85
2021/11/21 03:05:48;;;;;;;14.35;10.25;;;;;;;8.29;81.94;99671.13;1775366;81;20989;-85
2021/11/21 03:08:15;;;;;;;16.48;11.35;;;;;;;8.29;82.03;99676.83;1775417;81;20989;-84
2021/11/21 03:10:44;;;;;;;15.23;11.08;;;;;;;8.28;82.01;99668.12;1775415;81;20926;-84
2021/11/21 03:13:10;;;;;;;18.60;13.00;;;;;;;8.29;82.09;99663.24;1775605;79;21455;-85
2021/11/21 03:15:37;;;;;;;15.20;11.18;;;;;;;8.29;82.21;99667.19;1774039;81;21327;-84
2021/11/21 03:18:05;;;;;;;15.40;10.48;;;;;;;8.30;82.32;99667.54;1775328;79;20945;-85
2021/11/21 03:20:34;;;;;;;18.30;11.00;;;;;;;8.31;82.23;99660.00;1774911;79;21467;-84
2021/11/21 03:23:02;;;;;;;16.50;11.55;;;;;;;8.32;82.14;99661.67;1760288;81;20945;-85
2021/11/21 03:25:29;;;;;;;13.58;10.48;;;;;;;8.34;82.16;99661.58;1775462;81;21012;-84
2021/11/21 03:27:55;;;;;;;15.60;11.73;;;;;;;8.33;82.24;99663.38;1775564;79;21509;-84
2021/11/21 03:30:23;;;;;;;16.35;12.00;;;;;;;8.33;82.25;99659.91;1777232;79;20938;-84
2021/11/21 03:32:51;;;;;;;14.90;10.80;;;;;;;8.32;82.26;99660.36;1771516;79;20953;-84
2021/11/21 03:35:19;;;;;;;14.78;10.48;;;;;;;8.32;82.31;99662.16;1781710;79;20954;-84
2021/11/21 03:37:45;;;;;;;13.98;10.25;;;;;;;8.28;82.25;99662.03;1774853;79;20949;-85
2021/11/21 03:40:15;;;;;;;14.60;10.63;;;;;;;8.27;82.28;99657.73;1773815;81;20985;-84
2021/11/21 03:42:42;;;;;;;16.85;10.98;;;;;;;8.27;82.30;99655.94;1774048;81;21440;-85
2021/11/21 03:45:10;;;;;;;14.85;10.68;;;;;;;8.27;82.24;99650.67;1775347;79;21400;-85
2021/11/21 03:47:36;;;;;;;17.32;10.65;;;;;;;8.26;82.42;99644.20;1779554;79;20961;-86
2021/11/21 03:50:04;;;;;;;14.80;10.35;;;;;;;8.24;82.23;99641.70;1774376;79;21016;-85
2021/11/21 03:52:30;;;;;;;17.35;11.68;;;;;;;8.22;82.36;99644.42;1775384;79;21504;-86
2021/11/21 03:54:56;;;;;;;15.65;10.05;;;;;;;8.22;82.35;99637.86;1775378;81;21471;-85
2021/11/21 03:57:23;;;;;;;19.37;12.25;;;;;;;8.23;82.36;99634.78;1775339;81;20965;-86
2021/11/21 03:59:49;;;;;;;14.85;10.78;;;;;;;8.22;82.32;99622.09;1775771;81;20930;-85
2021/11/21 04:02:15;;;;;;;14.63;10.40;;;;;;;8.22;82.38;99630.45;1778713;79;20918;-85
2021/11/21 04:04:42;;;;;;;18.37;11.10;;;;;;;8.19;82.37;99621.48;1774205;79;20990;-85
2021/11/21 04:07:08;;;;;;;17.40;10.18;;;;;;;8.19;82.44;99621.48;1765974;79;20922;-85
2021/11/21 04:09:34;;;;;;;15.40;11.30;;;;;;;8.18;82.42;99627.22;1774123;81;20982;-85
2021/11/21 04:12:00;;;;;;;14.23;10.63;;;;;;;8.16;82.46;99620.39;1775323;79;20988;-86
2021/11/21 04:14:27;;;;;;;15.13;10.80;;;;;;;8.15;82.56;99619.55;1775760;79;20993;-86
2021/11/21 04:16:53;;;;;;;17.27;11.05;;;;;;;8.14;82.52;99619.69;1774975;79;20926;-85
2021/11/21 04:19:19;;;;;;;20.30;13.43;;;;;;;8.11;82.52;99626.48;1775856;79;20952;-86
2021/11/21 04:21:45;;;;;;;16.75;11.95;;;;;;;8.08;82.59;99623.59;1775737;79;21008;-85
2021/11/21 04:24:15;;;;;;;19.42;12.47;;;;;;;8.06;82.64;99618.94;1812034;79;20993;-86
2021/11/21 04:26:43;;;;;;;18.23;12.13;;;;;;;8.06;82.71;99628.59;1812173;79;20990;-85
2021/11/21 04:29:11;;;;;;;15.85;11.57;;;;;;;8.05;82.76;99615.93;1775691;81;21571;-86
2021/11/21 04:31:38;;;;;;;17.20;11.68;;;;;;;8.04;82.77;99614.74;1775524;79;20961;-86
2021/11/21 04:36:40;;;;;;;14.53;11.43;;;;;;;8.04;82.81;99602.44;1811829;79;22917;-85
2021/11/21 04:39:06;;;;;;;16.82;12.05;;;;;;;7.99;82.82;99601.92;1763298;80;21041;-85
2021/11/21 04:41:32;;;;;;;16.90;12.25;;;;;;;7.99;82.92;99599.30;1761353;81;21001;-85
2021/11/21 04:43:59;;;;;;;17.95;12.90;;;;;;;7.99;82.94;99603.23;1771938;80;20953;-85
2021/11/21 04:46:25;;;;;;;18.12;11.95;;;;;;;7.98;83.01;99603.72;1774135;80;21298;-85
2021/11/21 04:48:52;;;;;;;16.20;12.13;;;;;;;7.98;83.05;99601.09;1757681;81;20958;-85
2021/11/21 04:51:18;;;;;;;14.38;11.60;;;;;;;7.96;82.98;99600.38;1761828;80;20949;-85
2021/11/21 04:53:44;;;;;;;17.75;12.10;;;;;;;7.96;83.07;99591.64;1762120;80;20996;-85
2021/11/21 04:56:10;;;;;;;18.85;13.28;;;;;;;7.95;83.17;99576.84;1761737;80;21029;-85
2021/11/21 04:58:36;;;;;;;23.27;15.18;;;;;;;7.97;83.13;99577.58;1761928;81;21470;-85
2021/11/21 05:01:03;;;;;;;35.40;20.15;;;;;;;7.93;83.13;99582.22;1768334;80;20990;-85
2021/11/21 05:03:30;;;;;;;25.43;17.48;;;;;;;7.94;83.09;99578.62;1767917;80;20933;-85
2021/11/21 05:05:56;;;;;;;29.52;18.02;;;;;;;7.92;83.16;99576.58;1774032;80;21473;-85
2021/11/21 05:08:23;;;;;;;25.17;16.45;;;;;;;7.90;83.16;99574.56;1777189;80;21455;-85
2021/11/21 05:10:50;;;;;;;18.77;12.45;;;;;;;7.91;83.14;99568.34;1788177;80;20957;-85
2021/11/21 05:13:16;;;;;;;16.75;11.28;;;;;;;7.91;83.12;99566.20;1781542;80;20954;-85
2021/11/21 05:15:42;;;;;;;16.07;11.15;;;;;;;7.93;83.12;99562.96;1762160;80;20987;-85
2021/11/21 05:18:08;;;;;;;13.43;10.70;;;;;;;7.92;83.02;99552.94;1765870;80;21020;-85
2021/11/21 05:20:35;;;;;;;18.35;13.72;;;;;;;7.90;83.03;99553.55;1763841;80;21574;-85
2021/11/21 05:23:02;;;;;;;18.95;13.78;;;;;;;7.90;83.07;99548.29;1768147;80;21024;-85
2021/11/21 05:25:28;;;;;;;18.37;12.82;;;;;;;7.89;83.09;99540.51;1765971;80;20976;-85
2021/11/21 05:27:54;;;;;;;19.48;13.98;;;;;;;7.89;83.13;99541.34;1768290;80;21523;-85
2021/11/21 05:30:22;;;;;;;17.45;13.05;;;;;;;7.88;83.07;99535.73;1756330;81;21547;-85
2021/11/21 05:32:49;;;;;;;17.35;12.88;;;;;;;7.87;83.14;99541.95;1762177;80;20997;-85
2021/11/21 05:35:17;;;;;;;20.92;13.05;;;;;;;7.87;83.12;99536.69;1761647;80;21073;-85
2021/11/21 05:37:46;;;;;;;19.62;13.32;;;;;;;7.85;83.05;99533.81;1762750;81;21496;-85
2021/11/21 05:40:14;;;;;;;14.07;12.20;;;;;;;7.84;83.06;99530.83;1759752;81;21028;-85
2021/11/21 05:42:40;;;;;;;18.73;12.47;;;;;;;7.83;83.10;99523.44;1760406;81;21499;-85
2021/11/21 05:45:07;;;;;;;18.37;13.72;;;;;;;7.83;83.21;99517.31;1762402;81;20980;-85
2021/11/21 05:47:34;;;;;;;16.23;12.30;;;;;;;7.81;83.26;99510.88;1768105;81;20985;-85
2021/11/21 05:50:01;;;;;;;19.27;13.88;;;;;;;7.81;83.17;99519.23;1763182;80;21005;-85
2021/11/21 05:52:27;;;;;;;19.35;13.78;;;;;;;7.79;83.23;99516.70;1755093;81;21013;-85
2021/11/21 05:54:55;;;;;;;19.95;14.35;;;;;;;7.75;83.14;99519.20;1766941;81;20989;-85
2021/11/21 05:57:21;;;;;;;21.27;14.83;;;;;;;7.72;83.25;99513.70;1758779;81;21025;-85
2021/11/21 05:59:48;;;;;;;20.50;15.13;;;;;;;7.71;83.23;99520.39;1776289;81;21472;-85
2021/11/21 06:02:14;;;;;;;23.30;16.75;;;;;;;7.69;83.34;99528.84;1759389;81;21044;-85
2021/11/21 06:04:41;;;;;;;19.73;15.00;;;;;;;7.68;83.30;99537.20;1756522;81;21005;-85
2021/11/21 06:07:09;;;;;;;18.95;14.95;;;;;;;7.66;83.16;99533.00;1757431;81;20989;-85
2021/11/21 06:09:35;;;;;;;18.60;13.88;;;;;;;7.61;83.26;99528.58;1760927;81;21488;-86
2021/11/21 06:12:01;;;;;;;22.32;14.05;;;;;;;7.59;83.45;99527.36;1760745;81;21013;-86
2021/11/21 06:14:29;;;;;;;18.92;13.90;;;;;;;7.58;83.37;99530.11;1763323;81;21028;-86
2021/11/21 06:16:55;;;;;;;17.95;13.75;;;;;;;7.57;83.61;99532.35;1758939;81;21000;-86
2021/11/21 06:19:22;;;;;;;19.48;13.90;;;;;;;7.57;83.61;99531.04;1761472;81;21460;-86
2021/11/21 06:21:48;;;;;;;17.48;13.38;;;;;;;7.56;83.53;99528.06;1761251;81;21408;-86
2021/11/21 06:24:14;;;;;;;22.60;17.05;;;;;;;7.55;83.65;99528.54;1757298;81;21010;-86
2021/11/21 06:26:43;;;;;;;24.57;16.52;;;;;;;7.55;83.59;99523.77;1763508;81;21036;-86
2021/11/21 06:29:10;;;;;;;26.12;18.05;;;;;;;7.55;83.65;99521.14;1761676;81;20926;-86
2021/11/21 06:31:36;;;;;;;30.72;19.05;;;;;;;7.55;83.78;99528.54;1767639;81;20989;-86
2021/11/21 06:34:02;;;;;;;27.48;17.20;;;;;;;7.56;83.83;99535.45;1748530;81;21013;-86
2021/11/21 06:36:29;;;;;;;25.65;17.25;;;;;;;7.57;83.82;99525.78;1761200;81;20993;-86
2021/11/21 06:38:55;;;;;;;26.85;17.85;;;;;;;7.57;83.85;99527.10;1766995;81;21468;-86
2021/11/21 06:41:22;;;;;;;27.48;18.17;;;;;;;7.54;83.78;99526.04;1768099;81;21459;-86
2021/11/21 06:43:48;;;;;;;30.68;18.85;;;;;;;7.51;84.01;99522.68;1761626;81;20957;-86
2021/11/21 06:46:15;;;;;;;31.42;19.15;;;;;;;7.52;83.95;99528.28;1759217;81;21495;-86
2021/11/21 06:48:42;;;;;;;30.65;19.15;;;;;;;7.51;83.94;99519.22;1756970;81;21009;-86
2021/11/21 06:51:09;;;;;;;32.30;19.77;;;;;;;7.50;84.00;99523.64;1768988;81;21080;-86
2021/11/21 06:53:36;;;;;;;27.32;19.17;;;;;;;7.52;84.21;99524.34;1761873;81;20962;-86
2021/11/21 06:56:03;;;;;;;29.25;18.48;;;;;;;7.52;84.22;99529.59;1760939;81;21009;-85
2021/11/21 06:58:29;;;;;;;25.30;18.60;;;;;;;7.56;84.17;99529.37;1761710;81;20978;-85
2021/11/21 07:00:55;;;;;;;26.27;16.45;;;;;;;7.56;84.14;99530.20;1760460;81;20956;-85
2021/11/21 07:03:22;;;;;;;24.45;17.40;;;;;;;7.57;83.99;99524.03;1756050;81;21005;-85
2021/11/21 07:05:48;;;;;;;26.25;18.07;;;;;;;7.55;83.91;99525.08;1766663;81;20993;-85
2021/11/21 07:08:16;;;;;;;22.80;15.58;;;;;;;7.48;83.85;99520.75;1753378;81;21457;-85
2021/11/21 07:10:42;;;;;;;22.32;14.53;;;;;;;7.43;84.08;99515.81;1760910;81;21028;-85
2021/11/21 07:13:08;;;;;;;23.87;15.18;;;;;;;7.43;84.29;99516.30;1761164;81;21016;-85
2021/11/21 07:15:35;;;;;;;23.52;16.40;;;;;;;7.42;84.35;99513.31;1760031;81;20985;-85
2021/11/21 07:18:01;;;;;;;26.50;15.40;;;;;;;7.40;84.40;99513.41;1764843;81;21056;-85
2021/11/21 07:20:28;;;;;;;21.77;14.85;;;;;;;7.39;84.48;99513.05;1762559;81;21045;-85
2021/11/21 07:22:54;;;;;;;23.50;15.15;;;;;;;7.39;84.58;99510.43;1746438;81;20988;-85
2021/11/21 07:25:23;;;;;;;22.27;14.83;;;;;;;7.41;84.74;99509.86;1756231;81;20997;-85
2021/11/21 07:27:51;;;;;;;23.83;15.63;;;;;;;7.41;84.86;99515.59;1760015;81;20922;-86
2021/11/21 07:30:20;;;;;;;23.02;16.95;;;;;;;7.43;85.10;99516.30;1761804;81;20962;-85
2021/11/21 07:32:48;;;;;;;22.17;15.25;;;;;;;7.43;84.98;99507.94;1761236;81;21480;-86
2021/11/21 07:35:18;;;;;;;21.68;15.00;;;;;;;7.43;84.96;99507.94;1759337;81;21012;-86
2021/11/21 07:37:45;;;;;;;21.55;15.32;;;;;;;7.42;84.93;99506.27;1767292;81;20997;-86
2021/11/21 07:40:13;;;;;;;24.00;16.60;;;;;;;7.42;85.15;99506.27;1773129;81;21468;-85
2021/11/21 07:42:40;;;;;;;22.35;15.08;;;;;;;7.43;85.24;99509.73;1761454;81;21435;-86
2021/11/21 07:45:08;;;;;;;24.15;16.32;;;;;;;7.45;85.47;99507.37;1762311;81;21033;-86
2021/11/21 07:47:35;;;;;;;21.48;14.33;;;;;;;7.49;85.44;99507.98;1772497;81;21560;-86
2021/11/21 07:50:01;;;;;;;24.25;15.88;;;;;;;7.53;85.45;99510.73;1755453;81;21499;-86
2021/11/21 07:52:28;;;;;;;25.48;16.17;;;;;;;7.56;85.40;99505.75;1761453;81;21028;-85
2021/11/21 07:54:54;;;;;;;23.42;14.83;;;;;;;7.59;85.38;99509.46;1761768;81;21539;-85
2021/11/21 07:57:21;;;;;;;20.15;14.10;;;;;;;7.60;85.35;99508.50;1762900;81;21005;-85
2021/11/21 07:59:47;;;;;;;27.07;15.80;;;;;;;7.61;85.37;99511.52;1761376;81;21460;-85
2021/11/21 08:02:13;;;;;;;26.33;15.83;;;;;;;7.62;85.35;99506.61;1760586;81;21577;-86
2021/11/21 08:04:39;;;;;;;22.90;14.25;;;;;;;7.63;85.42;99506.97;1761119;81;20989;-85
2021/11/21 08:07:08;;;;;;;25.45;15.80;;;;;;;7.63;85.48;99513.53;1761336;81;22310;-85
2021/11/21 08:09:35;;;;;;;22.22;15.55;;;;;;;7.64;85.43;99506.03;1761904;80;21025;-85
2021/11/21 08:12:02;;;;;;;26.55;16.27;;;;;;;7.65;85.31;99511.16;1761337;81;21042;-86
2021/11/21 08:14:28;;;;;;;24.27;16.42;;;;;;;7.67;85.03;99503.19;1761750;81;21012;-85
2021/11/21 08:16:54;;;;;;;20.30;14.80;;;;;;;7.67;84.65;99499.25;1761125;81;21498;-86
2021/11/21 08:19:21;;;;;;;20.23;13.65;;;;;;;7.69;84.68;99496.02;1763937;80;21966;-85
2021/11/21 08:21:47;;;;;;;23.18;15.45;;;;;;;7.71;84.67;99496.75;1760362;80;21008;-85
2021/11/21 08:24:13;;;;;;;20.88;15.13;;;;;;;7.73;84.45;99498.77;1787449;80;21000;-84
2021/11/21 08:26:39;;;;;;;21.10;14.55;;;;;;;7.78;84.51;99501.91;1758962;81;21530;-85
2021/11/21 08:29:06;;;;;;;22.48;15.03;;;;;;;7.84;84.34;99507.19;1761761;81;20969;-82
2021/11/21 08:31:32;;;;;;;22.45;14.70;;;;;;;7.88;84.02;99500.27;1761299;81;22157;-82
2021/11/21 08:33:59;;;;;;;18.85;13.72;;;;;;;7.92;83.81;99500.39;1758695;80;20990;-84
2021/11/21 08:36:25;;;;;;;19.73;13.75;;;;;;;7.96;83.58;99515.00;1763905;80;20986;-84
2021/11/21 08:38:51;;;;;;;20.72;15.53;;;;;;;7.99;83.38;99506.03;1751522;81;20974;-84
2021/11/21 08:41:18;;;;;;;23.42;15.28;;;;;;;8.01;83.26;99507.25;1765766;81;20998;-84
2021/11/21 08:43:44;;;;;;;21.10;15.15;;;;;;;8.03;83.27;99504.00;1741920;82;21486;-84
2021/11/21 08:46:10;;;;;;;22.15;15.10;;;;;;;8.06;83.21;99505.09;1748463;81;20962;-84
2021/11/21 08:48:36;;;;;;;22.42;15.20;;;;;;;8.09;83.06;99500.92;1748021;82;21322;-84
2021/11/21 08:51:03;;;;;;;21.87;15.38;;;;;;;8.09;82.78;99499.13;1756617;81;20950;-83
2021/11/21 08:53:30;;;;;;;20.12;14.23;;;;;;;8.10;82.67;99504.77;1718745;83;21042;-83
2021/11/21 08:55:56;;;;;;;20.75;14.73;;;;;;;8.11;82.54;99497.72;1739133;81;21021;-85
2021/11/21 08:58:22;;;;;;;21.68;14.75;;;;;;;8.11;82.60;99497.23;1748575;82;20978;-84
2021/11/21 09:00:48;;;;;;;21.12;15.65;;;;;;;8.13;82.80;99495.82;1746796;81;21033;-85
2021/11/21 09:03:15;;;;;;;19.25;13.53;;;;;;;8.15;82.85;99501.30;1744378;81;21028;-84
2021/11/21 09:05:41;;;;;;;19.62;14.47;;;;;;;8.14;82.37;99501.43;1766680;81;21484;-84
2021/11/21 09:08:07;;;;;;;22.42;14.28;;;;;;;8.11;82.42;99495.09;1752989;81;20966;-85
2021/11/21 09:10:34;;;;;;;22.90;15.30;;;;;;;8.08;82.32;99496.15;1748520;81;21033;-83
2021/11/21 09:13:01;;;;;;;22.52;14.68;;;;;;;8.07;82.48;99497.11;1770245;81;20997;-84
2021/11/21 09:15:28;;;;;;;20.70;14.40;;;;;;;8.08;82.48;99497.95;1756898;81;21020;-84
2021/11/21 09:17:55;;;;;;;23.45;14.75;;;;;;;8.06;82.53;99505.09;1759625;81;21006;-83
2021/11/21 09:20:23;;;;;;;22.13;14.83;;;;;;;8.07;82.46;99488.39;1768611;81;21912;-84
2021/11/21 09:22:51;;;;;;;27.60;16.17;;;;;;;8.07;82.62;99491.86;1754391;81;20961;-84
2021/11/21 09:25:19;;;;;;;22.30;14.47;;;;;;;8.10;82.66;99494.25;1746341;81;21499;-84
2021/11/21 09:27:46;;;;;;;22.65;13.93;;;;;;;8.13;82.54;99488.77;1750030;80;20969;-84
2021/11/21 09:30:12;;;;;;;23.10;15.95;;;;;;;8.15;82.49;99489.47;1750358;81;21022;-84
2021/11/21 09:32:42;;;;;;;25.65;16.77;;;;;;;8.18;82.51;99484.47;1741647;81;21001;-83
2021/11/21 09:35:10;;;;;;;24.80;15.50;;;;;;;8.22;82.46;99488.53;1755364;81;20982;-84
2021/11/21 09:37:37;;;;;;;23.35;15.63;;;;;;;8.26;82.41;99490.44;1748366;81;21417;-83
2021/11/21 09:40:06;;;;;;;21.42;15.68;;;;;;;8.30;82.39;99479.59;1756096;80;20963;-84
2021/11/21 09:42:33;;;;;;;26.65;16.07;;;;;;;8.35;82.49;99475.29;1738005;81;21010;-84
2021/11/21 09:45:00;;;;;;;26.30;16.77;;;;;;;8.39;82.15;99476.75;1757636;81;20990;-84
2021/11/21 09:47:26;;;;;;;22.65;16.07;;;;;;;8.40;82.04;99475.34;1742531;80;20986;-83
2021/11/21 09:49:53;;;;;;;21.27;15.00;;;;;;;8.41;81.94;99469.11;1751606;81;20986;-83
2021/11/21 09:52:19;;;;;;;23.45;16.60;;;;;;;8.41;81.84;99465.17;1749476;81;20955;-83
2021/11/21 09:54:46;;;;;;;20.55;15.32;;;;;;;8.43;81.90;99461.95;1753585;81;21012;-84
2021/11/21 09:57:12;;;;;;;24.30;16.45;;;;;;;8.44;81.53;99455.73;1754094;81;20977;-84
2021/11/21 09:59:56;;;;;;;24.35;16.50;;;;;;;8.43;81.43;99452.75;1756608;81;20953;-84
2021/11/21 10:02:30;;;;;;;22.52;16.73;;;;;;;8.42;81.68;99464.69;1744731;80;21053;-83
2021/11/21 10:05:02;;;;;;;22.10;16.32;;;;;;;8.41;81.47;99463.86;1737250;80;21052;-83
2021/11/21 10:07:31;;;;;;;22.83;16.13;;;;;;;8.42;81.62;99464.23;1751530;81;21446;-84
2021/11/21 10:09:59;;;;;;;21.37;15.58;;;;;;;8.44;81.69;99459.67;1746496;80;21001;-83
2021/11/21 10:12:36;;;;;;;21.70;16.07;;;;;;;8.44;81.43;99458.36;1744911;81;20993;-84
2021/11/21 10:15:17;;;;;;;21.77;15.50;;;;;;;8.44;81.53;99458.36;1748416;81;21021;-83
2021/11/21 10:17:47;;;;;;;24.30;16.30;;;;;;;8.45;81.39;99460.51;1737927;82;21080;-80
2021/11/21 10:20:23;;;;;;;26.40;16.10;;;;;;;8.46;81.66;99449.06;1751903;81;20977;-83
2021/11/21 10:23:06;;;;;;;19.27;13.83;;;;;;;8.50;81.63;99454.91;1729289;81;21000;-78
2021/11/21 10:25:37;;;;;;;;;;;;;;;8.51;81.39;99453.47;1730899;82;21046;-78
2021/11/21 10:28:20;;;;;;;21.35;16.07;;;;;;;8.50;81.19;99450.97;1740084;82;20259;-79
2021/11/21 10:31:10;;;;;;;30.00;20.77;;;;;;;8.48;81.19;99448.92;1733997;81;21001;-83
2021/11/21 10:33:42;;;;;;;28.92;20.48;;;;;;;8.50;81.50;99452.28;1732951;80;21029;-83
2021/11/21 10:36:27;;;;;;;24.97;16.53;;;;;;;8.50;81.35;99443.08;1740718;80;21560;-82
2021/11/21 10:38:57;;;;;;;46.50;20.72;;;;;;;8.51;81.27;99446.06;1741369;81;20991;-83
2021/11/21 10:41:31;;;;;;;21.90;15.30;;;;;;;8.53;81.17;99438.41;1741808;81;21460;-80
2021/11/21 10:44:09;;;;;;;25.00;17.55;;;;;;;8.57;81.01;99441.64;1746341;81;21434;-78
2021/11/21 10:46:54;;;;;;;33.70;21.12;;;;;;;8.58;80.88;99434.09;1748962;81;20998;-81
2021/11/21 10:49:39;;;;;;;28.57;17.67;;;;;;;8.58;80.67;99434.93;1745754;81;21066;-81
2021/11/21 10:52:15;;;;;;;21.90;15.65;;;;;;;8.60;80.62;99434.83;1751064;81;21519;-82
2021/11/21 10:54:55;;;;;;;24.80;16.97;;;;;;;8.63;80.49;99444.63;1731844;82;20991;-82
2021/11/21 10:57:27;;;;;;;22.98;15.23;;;;;;;8.64;80.26;99444.14;1745597;80;21038;-83
2021/11/21 10:59:58;;;;;;;22.27;15.35;;;;;;;8.65;80.17;99441.86;1743130;82;20971;-82
2021/11/21 11:02:37;;;;;;;23.67;14.87;;;;;;;8.66;79.76;99446.19;1743339;81;21613;-82
2021/11/21 11:05:13;;;;;;;19.75;14.00;;;;;;;8.63;79.53;99443.80;1746604;81;21020;-82
2021/11/21 11:08:02;;;;;;;21.90;14.78;;;;;;;8.60;79.21;99432.20;1747099;81;21483;-82
2021/11/21 11:10:38;;;;;;;22.87;17.35;;;;;;;8.58;79.40;99434.09;1742113;82;21030;-83
2021/11/21 11:13:10;;;;;;;27.90;18.95;;;;;;;8.56;79.32;99434.72;1743499;81;20970;-83
2021/11/21 11:15:40;;;;;;;24.20;16.52;;;;;;;8.54;79.46;99439.25;1737132;80;21020;-83
2021/11/21 11:18:14;;;;;;;19.30;13.88;;;;;;;8.53;79.53;99433.64;1745706;81;21017;-82
2021/11/21 11:20:53;;;;;;;23.27;14.93;;;;;;;8.53;79.31;99428.38;1741228;81;21498;-82
2021/11/21 11:23:20;;;;;;;19.55;13.93;;;;;;;8.50;79.31;99433.39;1739997;81;20971;-83
2021/11/21 11:25:50;;;;;;;22.02;15.28;;;;;;;8.48;79.33;99425.26;1742596;81;21031;-82
2021/11/21 11:28:39;;;;;;;23.25;17.48;;;;;;;8.43;79.41;99420.38;1747037;81;21055;-82
2021/11/21 11:31:25;;;;;;;20.45;13.95;;;;;;;8.45;79.42;99428.48;1741555;82;21006;-82
2021/11/21 11:33:55;;;;;;;23.10;15.38;;;;;;;8.42;79.32;99426.11;1744686;82;20983;-82